BEL4EB GBYD-GOBD
Flight info
| Callsign | BEL4EB |
|---|---|
| Flight time | 0h 20m |
| Altitude | 22000 |
| Route | BIDAV BIDAV1A |
| Aircraft | A333/H-SDE3GHIJ2J3J5M1RVWXY/LB2D1 |
Departure
| Time | 2026-04-25 17:20 |
|---|---|
| Airport | Banjul International Airport (GBYD) |
Arrival
| Time | 2026-04-25 17:40 |
|---|---|
| Airport | Blaise Diagne International Airport (GOBD) |
| Time | Latitude | Longitude | Altitude | Speed | Heading |
|---|---|---|---|---|---|
| 2026-04-25 16:45 | 13.34220 | -16.65247 | 99 ft | 0 kts | 131° |
| 2026-04-25 17:14 | 13.34218 | -16.65245 | 95 ft | 1 kts | 131° |
| 2026-04-25 17:14 | 13.34205 | -16.65231 | 98 ft | 4 kts | 139° |
| 2026-04-25 17:15 | 13.34171 | -16.65223 | 98 ft | 6 kts | 189° |
| 2026-04-25 17:15 | 13.34134 | -16.65248 | 99 ft | 7 kts | 219° |
| 2026-04-25 17:15 | 13.34085 | -16.65274 | 97 ft | 9 kts | 189° |
| 2026-04-25 17:15 | 13.34027 | -16.65246 | 97 ft | 11 kts | 130° |
| 2026-04-25 17:16 | 13.33964 | -16.65190 | 99 ft | 13 kts | 167° |
| 2026-04-25 17:16 | 13.33892 | -16.65237 | 99 ft | 13 kts | 221° |
| 2026-04-25 17:16 | 13.33810 | -16.65253 | 97 ft | 13 kts | 148° |
| 2026-04-25 17:16 | 13.33743 | -16.65175 | 96 ft | 16 kts | 130° |
| 2026-04-25 17:17 | 13.33659 | -16.65075 | 96 ft | 21 kts | 130° |
| 2026-04-25 17:17 | 13.33557 | -16.64953 | 96 ft | 24 kts | 131° |
| 2026-04-25 17:17 | 13.33441 | -16.64815 | 95 ft | 27 kts | 130° |
| 2026-04-25 17:17 | 13.33313 | -16.64664 | 98 ft | 29 kts | 131° |
| 2026-04-25 17:18 | 13.33178 | -16.64502 | 97 ft | 31 kts | 130° |
| 2026-04-25 17:18 | 13.33037 | -16.64333 | 98 ft | 32 kts | 131° |
| 2026-04-25 17:18 | 13.32902 | -16.64170 | 97 ft | 21 kts | 122° |
| 2026-04-25 17:18 | 13.32878 | -16.64037 | 97 ft | 16 kts | 87° |
| 2026-04-25 17:19 | 13.32847 | -16.63942 | 96 ft | 14 kts | 163° |
| 2026-04-25 17:19 | 13.32753 | -16.63958 | 95 ft | 13 kts | 215° |
| 2026-04-25 17:19 | 13.32766 | -16.64009 | 97 ft | 8 kts | 310° |
| 2026-04-25 17:19 | 13.32860 | -16.64123 | 96 ft | 47 kts | 311° |
| 2026-04-25 17:20 | 13.33218 | -16.64548 | 98 ft | 109 kts | 311° |
| 2026-04-25 17:20 | 13.33838 | -16.65284 | 99 ft | 162 kts | 311° |
| 2026-04-25 17:20 | 13.34620 | -16.66199 | 622 ft | 177 kts | 308° |
| 2026-04-25 17:20 | 13.35492 | -16.67224 | 1156 ft | 194 kts | 314° |
| 2026-04-25 17:21 | 13.36427 | -16.68315 | 1859 ft | 211 kts | 315° |
| 2026-04-25 17:21 | 13.37439 | -16.69493 | 2114 ft | 234 kts | 315° |
| 2026-04-25 17:21 | 13.38566 | -16.70804 | 2394 ft | 254 kts | 315° |
| 2026-04-25 17:21 | 13.39755 | -16.72188 | 2991 ft | 260 kts | 314° |
| 2026-04-25 17:22 | 13.40974 | -16.73555 | 3773 ft | 258 kts | 320° |
| 2026-04-25 17:22 | 13.41433 | -16.73965 | 4047 ft | 258 kts | 323° |
| 2026-04-25 17:22 | 13.44075 | -16.75382 | 5247 ft | 262 kts | 340° |
| 2026-04-25 17:22 | 13.45801 | -16.76020 | 5954 ft | 267 kts | 342° |
| 2026-04-25 17:23 | 13.47570 | -16.76635 | 6644 ft | 271 kts | 342° |
| 2026-04-25 17:23 | 13.48787 | -16.77050 | 7129 ft | 274 kts | 342° |
| 2026-04-25 17:23 | 13.50593 | -16.77661 | 7791 ft | 282 kts | 342° |
| 2026-04-25 17:23 | 13.52485 | -16.78298 | 8483 ft | 289 kts | 342° |
| 2026-04-25 17:24 | 13.54418 | -16.78948 | 9213 ft | 295 kts | 342° |
| 2026-04-25 17:24 | 13.56389 | -16.79610 | 9930 ft | 302 kts | 342° |
| 2026-04-25 17:24 | 13.58450 | -16.80302 | 10279 ft | 322 kts | 342° |
| 2026-04-25 17:24 | 13.60652 | -16.81042 | 10542 ft | 343 kts | 341° |
| 2026-04-25 17:25 | 13.62986 | -16.81826 | 10788 ft | 363 kts | 341° |
| 2026-04-25 17:25 | 13.65436 | -16.82649 | 11139 ft | 377 kts | 340° |
| 2026-04-25 17:25 | 13.67956 | -16.83496 | 11688 ft | 383 kts | 340° |
| 2026-04-25 17:25 | 13.70501 | -16.84351 | 12374 ft | 386 kts | 340° |
| 2026-04-25 17:26 | 13.73072 | -16.85216 | 13021 ft | 391 kts | 340° |
| 2026-04-25 17:26 | 13.75670 | -16.86089 | 13564 ft | 394 kts | 339° |
| 2026-04-25 17:26 | 13.78285 | -16.86968 | 13773 ft | 395 kts | 340° |
| 2026-04-25 17:26 | 13.80899 | -16.87846 | 13802 ft | 395 kts | 340° |
| 2026-04-25 17:27 | 13.83516 | -16.88726 | 13801 ft | 396 kts | 340° |
| 2026-04-25 17:27 | 13.86144 | -16.89611 | 13729 ft | 401 kts | 340° |
| 2026-04-25 17:27 | 13.88801 | -16.90505 | 13423 ft | 400 kts | 340° |
| 2026-04-25 17:27 | 13.90542 | -16.91090 | 13092 ft | 395 kts | 340° |
| 2026-04-25 17:28 | 13.93993 | -16.92250 | 12431 ft | 386 kts | 340° |
| 2026-04-25 17:28 | 13.96523 | -16.93102 | 11953 ft | 379 kts | 340° |
| 2026-04-25 17:28 | 13.99008 | -16.93939 | 11460 ft | 372 kts | 341° |
| 2026-04-25 17:28 | 14.01412 | -16.94748 | 10996 ft | 354 kts | 341° |
| 2026-04-25 17:29 | 14.03697 | -16.95518 | 10556 ft | 337 kts | 341° |
| 2026-04-25 17:29 | 14.05871 | -16.96251 | 10218 ft | 319 kts | 341° |
| 2026-04-25 17:29 | 14.07913 | -16.96939 | 10188 ft | 304 kts | 341° |
| 2026-04-25 17:29 | 14.09922 | -16.97617 | 9970 ft | 305 kts | 341° |
| 2026-04-25 17:30 | 14.11947 | -16.98301 | 9494 ft | 307 kts | 341° |
| 2026-04-25 17:30 | 14.13985 | -16.98989 | 8995 ft | 309 kts | 342° |
| 2026-04-25 17:30 | 14.16030 | -16.99679 | 8501 ft | 310 kts | 342° |
| 2026-04-25 17:30 | 14.18076 | -17.00369 | 8016 ft | 308 kts | 342° |
| 2026-04-25 17:31 | 14.20050 | -17.01035 | 7541 ft | 297 kts | 342° |
| 2026-04-25 17:31 | 14.21971 | -17.01684 | 7075 ft | 285 kts | 342° |
| 2026-04-25 17:31 | 14.23823 | -17.02309 | 6617 ft | 277 kts | 342° |
| 2026-04-25 17:31 | 14.25639 | -17.02922 | 6159 ft | 273 kts | 342° |
| 2026-04-25 17:32 | 14.27435 | -17.03529 | 5784 ft | 271 kts | 342° |
| 2026-04-25 17:32 | 14.29224 | -17.04134 | 5407 ft | 270 kts | 342° |
| 2026-04-25 17:32 | 14.31003 | -17.04735 | 5051 ft | 268 kts | 342° |
| 2026-04-25 17:32 | 14.32774 | -17.05334 | 4714 ft | 267 kts | 342° |
| 2026-04-25 17:33 | 14.34534 | -17.05929 | 4384 ft | 264 kts | 342° |
| 2026-04-25 17:33 | 14.36257 | -17.06501 | 4173 ft | 257 kts | 345° |
| 2026-04-25 17:33 | 14.37991 | -17.06809 | 3995 ft | 249 kts | 355° |
| 2026-04-25 17:33 | 14.39693 | -17.06849 | 3803 ft | 239 kts | 359° |
| 2026-04-25 17:34 | 14.41307 | -17.06855 | 3631 ft | 225 kts | 359° |
| 2026-04-25 17:34 | 14.42832 | -17.06870 | 3463 ft | 212 kts | 359° |
| 2026-04-25 17:34 | 14.44267 | -17.06890 | 3315 ft | 200 kts | 359° |
| 2026-04-25 17:34 | 14.45611 | -17.06913 | 3178 ft | 187 kts | 359° |
| 2026-04-25 17:35 | 14.46867 | -17.06937 | 3058 ft | 174 kts | 359° |
| 2026-04-25 17:35 | 14.48050 | -17.06960 | 2999 ft | 168 kts | 359° |
| 2026-04-25 17:35 | 14.49218 | -17.06981 | 2992 ft | 167 kts | 359° |
| 2026-04-25 17:35 | 14.50376 | -17.07001 | 2992 ft | 167 kts | 359° |
| 2026-04-25 17:36 | 14.51540 | -17.07019 | 2927 ft | 170 kts | 360° |
| 2026-04-25 17:36 | 14.52721 | -17.07036 | 2726 ft | 169 kts | 0° |
| 2026-04-25 17:36 | 14.53889 | -17.07055 | 2488 ft | 165 kts | 360° |
| 2026-04-25 17:36 | 14.55005 | -17.07074 | 2275 ft | 155 kts | 0° |
| 2026-04-25 17:37 | 14.56051 | -17.07091 | 2082 ft | 145 kts | 1° |
| 2026-04-25 17:37 | 14.57008 | -17.07125 | 1922 ft | 132 kts | 359° |
| 2026-04-25 17:37 | 14.57898 | -17.07175 | 1728 ft | 126 kts | 0° |
| 2026-04-25 17:37 | 14.58761 | -17.07229 | 1590 ft | 124 kts | 1° |
| 2026-04-25 17:38 | 14.59623 | -17.07246 | 1423 ft | 125 kts | 2° |
| 2026-04-25 17:38 | 14.60200 | -17.07237 | 1328 ft | 124 kts | 2° |
| 2026-04-25 17:38 | 14.61351 | -17.07229 | 1141 ft | 122 kts | 1° |
| 2026-04-25 17:38 | 14.62186 | -17.07250 | 946 ft | 121 kts | 1° |
| 2026-04-25 17:39 | 14.63042 | -17.07262 | 836 ft | 125 kts | 0° |
| 2026-04-25 17:39 | 14.63907 | -17.07245 | 661 ft | 124 kts | 359° |
| 2026-04-25 17:39 | 14.64763 | -17.07261 | 465 ft | 121 kts | 0° |
| 2026-04-25 17:39 | 14.65604 | -17.07264 | 308 ft | 121 kts | 358° |
| 2026-04-25 17:40 | 14.66380 | -17.07274 | 296 ft | 98 kts | 0° |
| 2026-04-25 17:40 | 14.66956 | -17.07281 | 305 ft | 70 kts | 359° |
| 2026-04-25 17:40 | 14.67391 | -17.07283 | 299 ft | 56 kts | 0° |
| 2026-04-25 17:40 | 14.67698 | -17.07246 | 295 ft | 28 kts | 22° |
| 2026-04-25 17:41 | 14.67826 | -17.07164 | 288 ft | 15 kts | 56° |
| 2026-04-25 17:41 | 14.67805 | -17.07100 | 294 ft | 6 kts | 156° |
| 2026-04-25 17:41 | 14.67766 | -17.07097 | 293 ft | 6 kts | 183° |
| 2026-04-25 17:41 | 14.67712 | -17.07098 | 293 ft | 10 kts | 179° |
| 2026-04-25 17:42 | 14.67622 | -17.07096 | 294 ft | 16 kts | 179° |
| 2026-04-25 17:42 | 14.67536 | -17.07043 | 297 ft | 15 kts | 101° |
| 2026-04-25 17:42 | 14.67472 | -17.06982 | 300 ft | 13 kts | 179° |
| 2026-04-25 17:42 | 14.67384 | -17.06952 | 300 ft | 15 kts | 147° |
| 2026-04-25 17:43 | 14.67295 | -17.06892 | 300 ft | 16 kts | 147° |
| 2026-04-25 17:43 | 14.67233 | -17.06851 | 301 ft | 5 kts | 148° |
| 2026-04-25 17:43 | 14.67226 | -17.06846 | 301 ft | 0 kts | 148° |